Ana Sayfa
METAR-TAF:

METAR-TAF

Havaalanları :

Denpasar, Endonezya

Enlem: 08-44-53S, Boylam: 115-10-03E, yükseklik: 4 m

METAR: eksik

Saat: 20:16 (13:16 UTC)

Tahmin

Rapor saat 11:00 UTC de 2 saat ve 16 dakika önce yapıldı.
Ayın 19'si saat 12 UTC'den ayın 20'si saat 12 UTC'ye kadar geçerli Tahmin
Rüzgar doğu/güneydoğudan 13 kt
Görüş mesafesi 10 km veya daha fazla
1600 ft yükseklikte parçalı bulutlu
Geçici
ayın 19'si saat 18 UTC'den ayın 19'si saat 22 UTC'ye kadar
Görüş mesafesi: 5000 m
1500 ft yükseklikte parçalı çok bulutlu
yağmur

TAF: WADD 191100Z 1912/2012 11013KT 9999 SCT016 TEMPO 1918/1922 5000 RA BKN015

4.000'den fazla havaalanı için hava durumu gözlemleri ve tahminleri (METAR ve TAF raporları).

Kullanılabilir istasyonlar harita üzerinde sarı ve kırmızı noktalarla gösterilir.

İstasyonun adını görmek için fareyi noktanın üzerinde gezdirin.

Sonrasında hava gözlem ve tahminlerini görmek için tıklayın.

Haritayı değiştirmek için: yaklaştırmak için siyah artı işaretli yeşil düğmeye ve uzaklaştırmak için de eksi işaretli düğmeye hızla tıklayın; bitişik haritalar için yeşil okları kullanın.


METAR-TAF: